sensor_id;sensor_type;location;lat;lon;timestamp;temperature;humidity
61151;DHT22;47029;50.994;2.876;2022-12-19T00:35:46;4.30;99.90
61151;DHT22;47029;50.994;2.876;2022-12-19T00:50:08;4.00;99.90
61151;DHT22;47029;50.994;2.876;2022-12-19T04:33:44;6.50;99.90
61151;DHT22;47029;50.994;2.876;2022-12-19T04:36:12;6.50;99.90
61151;DHT22;47029;50.994;2.876;2022-12-19T04:38:38;6.50;99.90
61151;DHT22;47029;50.994;2.876;2022-12-19T04:41:05;6.50;99.90
61151;DHT22;47029;50.994;2.876;2022-12-19T04:43:31;6.50;99.90
61151;DHT22;47029;50.994;2.876;2022-12-19T04:46:00;4.50;99.90
61151;DHT22;47029;50.994;2.876;2022-12-19T04:48:26;6.60;99.90
61151;DHT22;47029;50.994;2.876;2022-12-19T04:50:51;6.60;99.90
61151;DHT22;47029;50.994;2.876;2022-12-19T04:53:18;6.70;99.90
61151;DHT22;47029;50.994;2.876;2022-12-19T04:55:44;6.70;99.90
61151;DHT22;47029;50.994;2.876;2022-12-19T04:58:10;6.60;99.90
61151;DHT22;47029;50.994;2.876;2022-12-19T05:00:39;6.60;99.90
61151;DHT22;47029;50.994;2.876;2022-12-19T05:03:05;6.60;99.90
61151;DHT22;47029;50.994;2.876;2022-12-19T05:05:32;6.60;99.90
61151;DHT22;47029;50.994;2.876;2022-12-19T05:07:58;6.70;99.90
61151;DHT22;47029;50.994;2.876;2022-12-19T05:10:24;6.60;99.90
61151;DHT22;47029;50.994;2.876;2022-12-19T05:12:52;6.60;99.90
61151;DHT22;47029;50.994;2.876;2022-12-19T05:15:18;6.70;99.90
61151;DHT22;47029;50.994;2.876;2022-12-19T05:17:44;6.70;99.90
61151;DHT22;47029;50.994;2.876;2022-12-19T05:20:10;6.80;99.90
61151;DHT22;47029;50.994;2.876;2022-12-19T05:22:36;6.70;99.90
61151;DHT22;47029;50.994;2.876;2022-12-19T05:25:02;6.70;99.90
61151;DHT22;47029;50.994;2.876;2022-12-19T05:27:28;6.90;99.90
61151;DHT22;47029;50.994;2.876;2022-12-19T05:29:57;6.90;99.90
61151;DHT22;47029;50.994;2.876;2022-12-19T05:32:23;6.90;99.90
61151;DHT22;47029;50.994;2.876;2022-12-19T05:34:49;6.80;99.90
61151;DHT22;47029;50.994;2.876;2022-12-19T05:37:18;6.80;99.90
61151;DHT22;47029;50.994;2.876;2022-12-19T05:39:44;6.80;99.90
61151;DHT22;47029;50.994;2.876;2022-12-19T05:42:10;6.80;99.90
61151;DHT22;47029;50.994;2.876;2022-12-19T05:44:38;6.90;99.90
61151;DHT22;47029;50.994;2.876;2022-12-19T05:47:07;7.00;99.90
61151;DHT22;47029;50.994;2.876;2022-12-19T05:49:33;7.10;99.90
61151;DHT22;47029;50.994;2.876;2022-12-19T05:51:59;6.90;99.90
61151;DHT22;47029;50.994;2.876;2022-12-19T05:54:26;6.90;99.90
61151;DHT22;47029;50.994;2.876;2022-12-19T05:56:52;6.80;99.90
61151;DHT22;47029;50.994;2.876;2022-12-19T05:59:18;6.90;99.90
61151;DHT22;47029;50.994;2.876;2022-12-19T06:01:47;6.90;99.90
61151;DHT22;47029;50.994;2.876;2022-12-19T06:04:13;6.90;99.90
61151;DHT22;47029;50.994;2.876;2022-12-19T06:06:43;6.80;99.90
61151;DHT22;47029;50.994;2.876;2022-12-19T06:09:09;6.90;99.90
61151;DHT22;47029;50.994;2.876;2022-12-19T06:11:34;6.90;99.90
61151;DHT22;47029;50.994;2.876;2022-12-19T06:14:00;6.90;99.90
61151;DHT22;47029;50.994;2.876;2022-12-19T06:16:26;7.00;99.90
61151;DHT22;47029;50.994;2.876;2022-12-19T06:18:52;7.10;99.90
61151;DHT22;47029;50.994;2.876;2022-12-19T06:21:21;7.20;99.90
61151;DHT22;47029;50.994;2.876;2022-12-19T06:23:48;7.20;99.90
61151;DHT22;47029;50.994;2.876;2022-12-19T06:26:15;7.20;99.90
61151;DHT22;47029;50.994;2.876;2022-12-19T06:28:41;7.10;99.90
61151;DHT22;47029;50.994;2.876;2022-12-19T06:31:09;7.20;99.90
61151;DHT22;47029;50.994;2.876;2022-12-19T06:33:36;7.20;99.90
61151;DHT22;47029;50.994;2.876;2022-12-19T06:36:12;5.80;99.90
61151;DHT22;47029;50.994;2.876;2022-12-19T06:38:39;7.20;99.90
61151;DHT22;47029;50.994;2.876;2022-12-19T06:41:05;7.40;99.90
61151;DHT22;47029;50.994;2.876;2022-12-19T06:43:50;7.40;99.90
61151;DHT22;47029;50.994;2.876;2022-12-19T06:46:16;7.40;99.90
61151;DHT22;47029;50.994;2.876;2022-12-19T06:48:45;7.40;99.90
61151;DHT22;47029;50.994;2.876;2022-12-19T06:51:11;7.20;99.90
61151;DHT22;47029;50.994;2.876;2022-12-19T06:53:37;7.30;99.90
61151;DHT22;47029;50.994;2.876;2022-12-19T06:56:03;7.30;99.90
61151;DHT22;47029;50.994;2.876;2022-12-19T06:58:30;7.30;99.90
61151;DHT22;47029;50.994;2.876;2022-12-19T07:00:57;7.30;99.90
61151;DHT22;47029;50.994;2.876;2022-12-19T07:03:29;7.30;99.90
61151;DHT22;47029;50.994;2.876;2022-12-19T07:05:57;7.40;99.90
61151;DHT22;47029;50.994;2.876;2022-12-19T07:08:28;7.30;99.90
61151;DHT22;47029;50.994;2.876;2022-12-19T07:10:55;7.30;99.90
61151;DHT22;47029;50.994;2.876;2022-12-19T07:13:21;7.40;99.90
61151;DHT22;47029;50.994;2.876;2022-12-19T07:15:49;7.60;99.90
61151;DHT22;47029;50.994;2.876;2022-12-19T07:18:15;7.80;99.90
61151;DHT22;47029;50.994;2.876;2022-12-19T07:20:41;7.70;99.90
61151;DHT22;47029;50.994;2.876;2022-12-19T07:23:11;7.60;99.90
61151;DHT22;47029;50.994;2.876;2022-12-19T07:25:38;7.70;99.90
61151;DHT22;47029;50.994;2.876;2022-12-19T07:28:07;6.40;99.90
61151;DHT22;47029;50.994;2.876;2022-12-19T07:30:33;7.80;99.90
61151;DHT22;47029;50.994;2.876;2022-12-19T07:32:59;7.70;99.90
61151;DHT22;47029;50.994;2.876;2022-12-19T07:35:26;7.70;99.90
61151;DHT22;47029;50.994;2.876;2022-12-19T07:37:52;7.80;99.90
61151;DHT22;47029;50.994;2.876;2022-12-19T07:40:19;7.70;99.90
61151;DHT22;47029;50.994;2.876;2022-12-19T07:42:45;7.90;99.90
61151;DHT22;47029;50.994;2.876;2022-12-19T07:45:14;7.70;99.90
61151;DHT22;47029;50.994;2.876;2022-12-19T07:47:40;7.80;99.90
61151;DHT22;47029;50.994;2.876;2022-12-19T07:50:07;7.70;99.90
61151;DHT22;47029;50.994;2.876;2022-12-19T07:52:32;7.70;99.90
61151;DHT22;47029;50.994;2.876;2022-12-19T07:54:59;7.50;99.90
61151;DHT22;47029;50.994;2.876;2022-12-19T07:57:25;7.60;99.90
61151;DHT22;47029;50.994;2.876;2022-12-19T07:59:52;7.60;99.90
61151;DHT22;47029;50.994;2.876;2022-12-19T08:02:18;7.50;99.90
61151;DHT22;47029;50.994;2.876;2022-12-19T08:04:44;7.50;99.90
61151;DHT22;47029;50.994;2.876;2022-12-19T08:07:11;7.60;99.90
61151;DHT22;47029;50.994;2.876;2022-12-19T08:09:39;7.60;99.90
61151;DHT22;47029;50.994;2.876;2022-12-19T08:12:06;7.60;99.90
61151;DHT22;47029;50.994;2.876;2022-12-19T08:14:35;7.80;99.90
61151;DHT22;47029;50.994;2.876;2022-12-19T08:17:01;7.70;99.90
61151;DHT22;47029;50.994;2.876;2022-12-19T08:19:27;7.80;99.90
61151;DHT22;47029;50.994;2.876;2022-12-19T08:21:53;7.80;99.90
61151;DHT22;47029;50.994;2.876;2022-12-19T08:24:19;6.40;99.90
61151;DHT22;47029;50.994;2.876;2022-12-19T08:26:45;7.80;99.90
61151;DHT22;47029;50.994;2.876;2022-12-19T08:29:11;7.80;99.90
61151;DHT22;47029;50.994;2.876;2022-12-19T08:31:38;8.00;99.90
61151;DHT22;47029;50.994;2.876;2022-12-19T08:34:07;7.90;99.90
61151;DHT22;47029;50.994;2.876;2022-12-19T08:36:33;7.90;99.90
61151;DHT22;47029;50.994;2.876;2022-12-19T08:38:59;7.90;99.90
61151;DHT22;47029;50.994;2.876;2022-12-19T08:41:26;7.90;99.90
61151;DHT22;47029;50.994;2.876;2022-12-19T08:43:54;8.00;99.90
61151;DHT22;47029;50.994;2.876;2022-12-19T08:46:21;8.00;99.90
61151;DHT22;47029;50.994;2.876;2022-12-19T08:48:47;7.90;99.90
61151;DHT22;47029;50.994;2.876;2022-12-19T08:51:14;7.90;99.90
61151;DHT22;47029;50.994;2.876;2022-12-19T08:53:42;8.10;99.90
61151;DHT22;47029;50.994;2.876;2022-12-19T08:56:19;7.90;99.90
61151;DHT22;47029;50.994;2.876;2022-12-19T08:58:46;7.80;99.90
61151;DHT22;47029;50.994;2.876;2022-12-19T09:01:17;7.90;99.90
61151;DHT22;47029;50.994;2.876;2022-12-19T09:03:44;8.00;99.90
61151;DHT22;47029;50.994;2.876;2022-12-19T09:06:14;8.00;99.90
61151;DHT22;47029;50.994;2.876;2022-12-19T09:08:40;8.10;99.90
61151;DHT22;47029;50.994;2.876;2022-12-19T09:11:12;8.00;99.90
61151;DHT22;47029;50.994;2.876;2022-12-19T09:13:39;8.00;99.90
61151;DHT22;47029;50.994;2.876;2022-12-19T09:18:33;8.20;99.90
61151;DHT22;47029;50.994;2.876;2022-12-19T09:21:00;8.10;99.90
61151;DHT22;47029;50.994;2.876;2022-12-19T09:23:28;8.10;99.90
61151;DHT22;47029;50.994;2.876;2022-12-19T09:25:56;8.20;99.90
61151;DHT22;47029;50.994;2.876;2022-12-19T09:28:22;8.00;99.90
61151;DHT22;47029;50.994;2.876;2022-12-19T09:31:10;8.20;99.90
61151;DHT22;47029;50.994;2.876;2022-12-19T09:33:37;7.10;99.90
61151;DHT22;47029;50.994;2.876;2022-12-19T09:36:04;8.20;99.90
61151;DHT22;47029;50.994;2.876;2022-12-19T09:38:32;8.10;99.90
61151;DHT22;47029;50.994;2.876;2022-12-19T09:46:52;8.10;99.90
61151;DHT22;47029;50.994;2.876;2022-12-19T09:49:35;6.50;99.90
61151;DHT22;47029;50.994;2.876;2022-12-19T09:52:24;7.90;99.90
61151;DHT22;47029;50.994;2.876;2022-12-19T09:55:03;7.90;99.90
61151;DHT22;47029;50.994;2.876;2022-12-19T09:57:46;7.80;99.90
61151;DHT22;47029;50.994;2.876;2022-12-19T10:00:19;7.90;99.90
61151;DHT22;47029;50.994;2.876;2022-12-19T10:02:51;7.80;99.90
61151;DHT22;47029;50.994;2.876;2022-12-19T10:07:53;7.90;99.90
61151;DHT22;47029;50.994;2.876;2022-12-19T10:10:46;8.00;99.90
61151;DHT22;47029;50.994;2.876;2022-12-19T10:15:59;8.00;99.90
61151;DHT22;47029;50.994;2.876;2022-12-19T10:26:38;7.90;99.90
61151;DHT22;47029;50.994;2.876;2022-12-19T10:34:42;7.90;99.90
61151;DHT22;47029;50.994;2.876;2022-12-19T10:40:02;8.00;99.90
61151;DHT22;47029;50.994;2.876;2022-12-19T10:45:20;8.10;99.90
61151;DHT22;47029;50.994;2.876;2022-12-19T10:47:49;8.10;99.90
61151;DHT22;47029;50.994;2.876;2022-12-19T10:50:23;8.10;99.90
61151;DHT22;47029;50.994;2.876;2022-12-19T10:53:07;8.10;99.90
61151;DHT22;47029;50.994;2.876;2022-12-19T11:01:20;8.20;99.90
61151;DHT22;47029;50.994;2.876;2022-12-19T11:03:53;8.20;99.90
61151;DHT22;47029;50.994;2.876;2022-12-19T11:06:51;8.30;99.90
61151;DHT22;47029;50.994;2.876;2022-12-19T11:09:22;8.30;99.90
61151;DHT22;47029;50.994;2.876;2022-12-19T11:12:08;8.30;99.90
61151;DHT22;47029;50.994;2.876;2022-12-19T11:14:38;8.20;99.90
61151;DHT22;47029;50.994;2.876;2022-12-19T11:17:05;8.20;99.90
61151;DHT22;47029;50.994;2.876;2022-12-19T11:19:47;8.30;99.90
61151;DHT22;47029;50.994;2.876;2022-12-19T11:24:42;8.40;99.90
61151;DHT22;47029;50.994;2.876;2022-12-19T11:32:39;8.30;99.90
61151;DHT22;47029;50.994;2.876;2022-12-19T11:35:26;8.20;99.90
61151;DHT22;47029;50.994;2.876;2022-12-19T11:38:02;8.30;99.90
61151;DHT22;47029;50.994;2.876;2022-12-19T11:40:37;8.20;99.90
61151;DHT22;47029;50.994;2.876;2022-12-19T11:45:47;8.30;99.90
61151;DHT22;47029;50.994;2.876;2022-12-19T11:56:42;8.30;99.90
61151;DHT22;47029;50.994;2.876;2022-12-19T12:07:43;8.40;99.90
61151;DHT22;47029;50.994;2.876;2022-12-19T12:10:15;8.40;99.90
61151;DHT22;47029;50.994;2.876;2022-12-19T12:12:57;8.50;99.90
61151;DHT22;47029;50.994;2.876;2022-12-19T12:16:05;8.60;99.90
61151;DHT22;47029;50.994;2.876;2022-12-19T12:21:25;8.70;99.90
61151;DHT22;47029;50.994;2.876;2022-12-19T12:26:32;8.70;99.90
61151;DHT22;47029;50.994;2.876;2022-12-19T12:39:39;7.30;99.90
61151;DHT22;47029;50.994;2.876;2022-12-19T12:42:42;8.60;99.90
61151;DHT22;47029;50.994;2.876;2022-12-19T12:45:27;8.80;99.90
61151;DHT22;47029;50.994;2.876;2022-12-19T12:47:58;8.70;99.90
61151;DHT22;47029;50.994;2.876;2022-12-19T12:50:24;8.80;99.90
61151;DHT22;47029;50.994;2.876;2022-12-19T12:52:55;8.80;99.90
61151;DHT22;47029;50.994;2.876;2022-12-19T12:55:36;8.80;99.90
61151;DHT22;47029;50.994;2.876;2022-12-19T12:58:05;8.80;99.90
61151;DHT22;47029;50.994;2.876;2022-12-19T13:00:32;8.70;99.90
61151;DHT22;47029;50.994;2.876;2022-12-19T13:08:35;8.90;99.90
61151;DHT22;47029;50.994;2.876;2022-12-19T13:11:10;8.90;99.90
61151;DHT22;47029;50.994;2.876;2022-12-19T13:13:57;8.90;99.90
61151;DHT22;47029;50.994;2.876;2022-12-19T13:16:49;8.90;99.90
61151;DHT22;47029;50.994;2.876;2022-12-19T13:19:26;8.90;99.90
61151;DHT22;47029;50.994;2.876;2022-12-19T13:24:48;9.00;99.90
61151;DHT22;47029;50.994;2.876;2022-12-19T13:32:25;8.90;99.90
61151;DHT22;47029;50.994;2.876;2022-12-19T13:37:42;8.90;99.90
61151;DHT22;47029;50.994;2.876;2022-12-19T13:42:46;9.20;99.90
61151;DHT22;47029;50.994;2.876;2022-12-19T13:45:33;9.20;99.90
61151;DHT22;47029;50.994;2.876;2022-12-19T13:48:02;9.10;99.90
61151;DHT22;47029;50.994;2.876;2022-12-19T13:50:36;9.00;99.90
61151;DHT22;47029;50.994;2.876;2022-12-19T13:53:13;8.90;99.90
61151;DHT22;47029;50.994;2.876;2022-12-19T13:55:39;8.90;99.90
61151;DHT22;47029;50.994;2.876;2022-12-19T13:58:05;8.90;99.90
61151;DHT22;47029;50.994;2.876;2022-12-19T14:00:35;9.00;99.90
61151;DHT22;47029;50.994;2.876;2022-12-19T14:03:01;9.00;99.90
61151;DHT22;47029;50.994;2.876;2022-12-19T14:05:33;9.00;99.90
61151;DHT22;47029;50.994;2.876;2022-12-19T14:08:02;9.10;99.90
61151;DHT22;47029;50.994;2.876;2022-12-19T14:10:34;9.00;99.90
61151;DHT22;47029;50.994;2.876;2022-12-19T14:13:06;9.10;99.90
61151;DHT22;47029;50.994;2.876;2022-12-19T14:15:51;9.10;99.90
61151;DHT22;47029;50.994;2.876;2022-12-19T14:18:25;9.10;99.90
61151;DHT22;47029;50.994;2.876;2022-12-19T14:23:37;9.30;99.90
61151;DHT22;47029;50.994;2.876;2022-12-19T14:26:10;9.10;99.90
61151;DHT22;47029;50.994;2.876;2022-12-19T14:28:42;9.10;99.90
61151;DHT22;47029;50.994;2.876;2022-12-19T14:31:15;9.00;99.90
61151;DHT22;47029;50.994;2.876;2022-12-19T14:33:47;9.20;99.90
61151;DHT22;47029;50.994;2.876;2022-12-19T14:36:20;9.10;99.90
61151;DHT22;47029;50.994;2.876;2022-12-19T14:38:47;9.30;99.90
61151;DHT22;47029;50.994;2.876;2022-12-19T14:44:20;9.40;99.90
61151;DHT22;47029;50.994;2.876;2022-12-19T14:47:11;9.40;99.90
61151;DHT22;47029;50.994;2.876;2022-12-19T14:49:37;9.50;99.90
61151;DHT22;47029;50.994;2.876;2022-12-19T14:52:04;9.50;99.90
61151;DHT22;47029;50.994;2.876;2022-12-19T14:54:33;9.50;99.90
61151;DHT22;47029;50.994;2.876;2022-12-19T14:57:02;9.40;99.90
61151;DHT22;47029;50.994;2.876;2022-12-19T14:59:44;9.40;99.90
61151;DHT22;47029;50.994;2.876;2022-12-19T15:05:09;9.50;99.90
61151;DHT22;47029;50.994;2.876;2022-12-19T15:07:41;9.40;99.90
61151;DHT22;47029;50.994;2.876;2022-12-19T15:10:14;9.30;99.90
61151;DHT22;47029;50.994;2.876;2022-12-19T15:15:43;9.30;99.90
61151;DHT22;47029;50.994;2.876;2022-12-19T15:21:03;9.20;99.90
61151;DHT22;47029;50.994;2.876;2022-12-19T15:23:31;9.30;99.90
61151;DHT22;47029;50.994;2.876;2022-12-19T15:26:03;9.20;99.90
61151;DHT22;47029;50.994;2.876;2022-12-19T15:28:50;9.20;99.90
61151;DHT22;47029;50.994;2.876;2022-12-19T15:31:40;9.20;99.90
61151;DHT22;47029;50.994;2.876;2022-12-19T15:36:35;9.10;99.90
61151;DHT22;47029;50.994;2.876;2022-12-19T15:39:02;9.00;99.90
61151;DHT22;47029;50.994;2.876;2022-12-19T15:41:28;9.10;99.90
61151;DHT22;47029;50.994;2.876;2022-12-19T15:43:55;9.00;99.90
61151;DHT22;47029;50.994;2.876;2022-12-19T15:46:29;8.90;99.90
61151;DHT22;47029;50.994;2.876;2022-12-19T15:48:55;8.90;99.90
61151;DHT22;47029;50.994;2.876;2022-12-19T15:51:21;8.90;99.90
61151;DHT22;47029;50.994;2.876;2022-12-19T15:53:47;9.00;99.90
61151;DHT22;47029;50.994;2.876;2022-12-19T15:56:27;8.90;99.90
61151;DHT22;47029;50.994;2.876;2022-12-19T15:58:56;9.00;99.90
61151;DHT22;47029;50.994;2.876;2022-12-19T16:01:24;9.10;99.90
61151;DHT22;47029;50.994;2.876;2022-12-19T16:03:51;9.10;99.90
61151;DHT22;47029;50.994;2.876;2022-12-19T16:06:17;9.00;99.90
61151;DHT22;47029;50.994;2.876;2022-12-19T16:08:46;8.90;99.90
61151;DHT22;47029;50.994;2.876;2022-12-19T16:11:19;8.80;99.90
61151;DHT22;47029;50.994;2.876;2022-12-19T16:13:51;8.90;99.90
61151;DHT22;47029;50.994;2.876;2022-12-19T16:16:18;9.00;99.90
61151;DHT22;47029;50.994;2.876;2022-12-19T16:18:46;8.90;99.90
61151;DHT22;47029;50.994;2.876;2022-12-19T16:21:24;9.00;99.90
61151;DHT22;47029;50.994;2.876;2022-12-19T16:23:51;9.00;99.90
61151;DHT22;47029;50.994;2.876;2022-12-19T16:26:30;9.00;99.90
61151;DHT22;47029;50.994;2.876;2022-12-19T16:28:57;9.10;99.90
61151;DHT22;47029;50.994;2.876;2022-12-19T16:31:25;9.10;99.90
61151;DHT22;47029;50.994;2.876;2022-12-19T16:33:51;9.00;99.90
61151;DHT22;47029;50.994;2.876;2022-12-19T16:36:17;9.10;99.90
61151;DHT22;47029;50.994;2.876;2022-12-19T16:38:43;9.20;99.90
61151;DHT22;47029;50.994;2.876;2022-12-19T16:41:21;9.20;99.90
61151;DHT22;47029;50.994;2.876;2022-12-19T16:43:50;9.10;99.90
61151;DHT22;47029;50.994;2.876;2022-12-19T16:46:19;9.00;99.90
61151;DHT22;47029;50.994;2.876;2022-12-19T16:48:46;9.00;99.90
61151;DHT22;47029;50.994;2.876;2022-12-19T16:51:23;9.00;99.90
61151;DHT22;47029;50.994;2.876;2022-12-19T16:53:51;9.00;99.90
61151;DHT22;47029;50.994;2.876;2022-12-19T16:56:34;8.90;99.90
61151;DHT22;47029;50.994;2.876;2022-12-19T17:01:51;9.00;99.90
61151;DHT22;47029;50.994;2.876;2022-12-19T17:04:21;9.00;99.90
61151;DHT22;47029;50.994;2.876;2022-12-19T17:06:48;9.00;99.90
61151;DHT22;47029;50.994;2.876;2022-12-19T17:09:23;8.90;99.90
61151;DHT22;47029;50.994;2.876;2022-12-19T17:11:52;8.90;99.90
61151;DHT22;47029;50.994;2.876;2022-12-19T17:14:22;8.90;99.90
61151;DHT22;47029;50.994;2.876;2022-12-19T17:16:52;8.90;99.90
61151;DHT22;47029;50.994;2.876;2022-12-19T17:19:29;8.90;99.90
61151;DHT22;47029;50.994;2.876;2022-12-19T17:21:59;8.80;99.90
61151;DHT22;47029;50.994;2.876;2022-12-19T17:24:24;8.80;99.90
61151;DHT22;47029;50.994;2.876;2022-12-19T17:26:50;8.90;99.90
61151;DHT22;47029;50.994;2.876;2022-12-19T17:29:16;8.90;99.90
61151;DHT22;47029;50.994;2.876;2022-12-19T17:31:42;8.80;99.90
61151;DHT22;47029;50.994;2.876;2022-12-19T17:34:16;8.90;99.90
61151;DHT22;47029;50.994;2.876;2022-12-19T17:36:43;8.80;99.90
61151;DHT22;47029;50.994;2.876;2022-12-19T17:39:33;8.90;99.90
61151;DHT22;47029;50.994;2.876;2022-12-19T17:42:26;8.80;99.90
61151;DHT22;47029;50.994;2.876;2022-12-19T17:44:52;8.90;99.90
61151;DHT22;47029;50.994;2.876;2022-12-19T17:47:18;8.90;99.90
61151;DHT22;47029;50.994;2.876;2022-12-19T17:49:45;8.90;99.90
61151;DHT22;47029;50.994;2.876;2022-12-19T17:52:14;8.90;99.90
61151;DHT22;47029;50.994;2.876;2022-12-19T17:54:41;8.90;99.90
61151;DHT22;47029;50.994;2.876;2022-12-19T17:57:16;8.90;99.90
61151;DHT22;47029;50.994;2.876;2022-12-19T17:59:43;8.90;99.90
61151;DHT22;47029;50.994;2.876;2022-12-19T18:02:22;8.90;99.90
61151;DHT22;47029;50.994;2.876;2022-12-19T18:04:49;8.40;99.90
61151;DHT22;47029;50.994;2.876;2022-12-19T18:07:17;9.10;99.90
61151;DHT22;47029;50.994;2.876;2022-12-19T18:09:43;9.00;99.90
61151;DHT22;47029;50.994;2.876;2022-12-19T18:12:10;9.10;99.90
61151;DHT22;47029;50.994;2.876;2022-12-19T18:14:35;9.10;99.90
61151;DHT22;47029;50.994;2.876;2022-12-19T18:17:02;9.20;99.90
61151;DHT22;47029;50.994;2.876;2022-12-19T18:19:30;9.20;99.90
61151;DHT22;47029;50.994;2.876;2022-12-19T18:21:57;9.20;99.90
61151;DHT22;47029;50.994;2.876;2022-12-19T18:24:25;9.20;99.90
61151;DHT22;47029;50.994;2.876;2022-12-19T18:26:51;9.10;99.90
61151;DHT22;47029;50.994;2.876;2022-12-19T18:29:17;9.20;99.90
61151;DHT22;47029;50.994;2.876;2022-12-19T18:31:43;9.20;99.90
61151;DHT22;47029;50.994;2.876;2022-12-19T18:34:20;9.20;99.90
61151;DHT22;47029;50.994;2.876;2022-12-19T18:36:47;7.50;99.90
61151;DHT22;47029;50.994;2.876;2022-12-19T18:39:25;9.10;99.90
61151;DHT22;47029;50.994;2.876;2022-12-19T18:41:52;9.20;99.90
61151;DHT22;47029;50.994;2.876;2022-12-19T18:44:18;9.30;99.90
61151;DHT22;47029;50.994;2.876;2022-12-19T18:46:46;9.10;99.90
61151;DHT22;47029;50.994;2.876;2022-12-19T18:49:15;9.10;99.90
61151;DHT22;47029;50.994;2.876;2022-12-19T18:51:44;9.00;99.90
61151;DHT22;47029;50.994;2.876;2022-12-19T18:54:21;9.00;99.90
61151;DHT22;47029;50.994;2.876;2022-12-19T18:56:47;9.00;99.90
61151;DHT22;47029;50.994;2.876;2022-12-19T18:59:13;9.00;99.90
61151;DHT22;47029;50.994;2.876;2022-12-19T19:01:43;8.90;99.90
61151;DHT22;47029;50.994;2.876;2022-12-19T19:04:10;8.90;99.90
61151;DHT22;47029;50.994;2.876;2022-12-19T19:06:37;8.90;99.90
61151;DHT22;47029;50.994;2.876;2022-12-19T19:09:05;8.80;99.90
61151;DHT22;47029;50.994;2.876;2022-12-19T19:11:30;8.80;99.90
61151;DHT22;47029;50.994;2.876;2022-12-19T19:13:56;8.80;99.90
61151;DHT22;47029;50.994;2.876;2022-12-19T19:16:24;8.80;99.90
61151;DHT22;47029;50.994;2.876;2022-12-19T19:18:53;8.90;99.90
61151;DHT22;47029;50.994;2.876;2022-12-19T19:21:23;8.80;99.90
61151;DHT22;47029;50.994;2.876;2022-12-19T19:23:59;8.90;99.90
61151;DHT22;47029;50.994;2.876;2022-12-19T19:26:25;9.00;99.90
61151;DHT22;47029;50.994;2.876;2022-12-19T19:28:51;9.00;99.90
61151;DHT22;47029;50.994;2.876;2022-12-19T19:31:19;8.90;99.90
61151;DHT22;47029;50.994;2.876;2022-12-19T19:33:49;9.00;99.90
61151;DHT22;47029;50.994;2.876;2022-12-19T19:36:19;9.00;99.90
61151;DHT22;47029;50.994;2.876;2022-12-19T19:38:50;9.00;99.90
61151;DHT22;47029;50.994;2.876;2022-12-19T19:41:18;8.90;99.90
61151;DHT22;47029;50.994;2.876;2022-12-19T19:43:44;9.00;99.90
61151;DHT22;47029;50.994;2.876;2022-12-19T19:46:10;9.00;99.90
61151;DHT22;47029;50.994;2.876;2022-12-19T19:48:37;9.10;99.90
61151;DHT22;47029;50.994;2.876;2022-12-19T19:51:05;9.00;99.90
61151;DHT22;47029;50.994;2.876;2022-12-19T19:53:31;9.00;99.90
61151;DHT22;47029;50.994;2.876;2022-12-19T19:55:59;9.00;99.90
61151;DHT22;47029;50.994;2.876;2022-12-19T19:58:29;9.10;99.90
61151;DHT22;47029;50.994;2.876;2022-12-19T20:00:55;8.90;99.90
61151;DHT22;47029;50.994;2.876;2022-12-19T20:03:22;9.10;99.90
61151;DHT22;47029;50.994;2.876;2022-12-19T20:05:48;9.00;99.90
61151;DHT22;47029;50.994;2.876;2022-12-19T20:08:15;9.00;99.90
61151;DHT22;47029;50.994;2.876;2022-12-19T20:10:41;7.80;99.90
61151;DHT22;47029;50.994;2.876;2022-12-19T20:13:07;9.00;99.90
61151;DHT22;47029;50.994;2.876;2022-12-19T20:15:33;9.10;99.90
61151;DHT22;47029;50.994;2.876;2022-12-19T20:17:59;9.10;99.90
61151;DHT22;47029;50.994;2.876;2022-12-19T20:20:27;9.00;99.90
61151;DHT22;47029;50.994;2.876;2022-12-19T20:22:54;9.00;99.90
61151;DHT22;47029;50.994;2.876;2022-12-19T20:25:21;9.10;99.90
61151;DHT22;47029;50.994;2.876;2022-12-19T20:27:47;9.10;99.90
61151;DHT22;47029;50.994;2.876;2022-12-19T20:30:13;9.00;99.90
61151;DHT22;47029;50.994;2.876;2022-12-19T20:32:40;9.00;99.90
61151;DHT22;47029;50.994;2.876;2022-12-19T20:35:06;9.00;99.90
61151;DHT22;47029;50.994;2.876;2022-12-19T20:37:34;9.20;99.90
61151;DHT22;47029;50.994;2.876;2022-12-19T20:40:00;9.20;99.90
61151;DHT22;47029;50.994;2.876;2022-12-19T20:42:25;9.10;99.90
61151;DHT22;47029;50.994;2.876;2022-12-19T20:44:51;9.30;99.90
61151;DHT22;47029;50.994;2.876;2022-12-19T20:47:17;9.30;99.90
61151;DHT22;47029;50.994;2.876;2022-12-19T20:49:43;9.20;99.90
61151;DHT22;47029;50.994;2.876;2022-12-19T20:52:10;9.20;99.90
61151;DHT22;47029;50.994;2.876;2022-12-19T20:54:38;9.20;99.90
61151;DHT22;47029;50.994;2.876;2022-12-19T20:57:04;9.20;99.90
61151;DHT22;47029;50.994;2.876;2022-12-19T20:59:30;9.20;99.90
61151;DHT22;47029;50.994;2.876;2022-12-19T21:01:56;9.20;99.90
61151;DHT22;47029;50.994;2.876;2022-12-19T21:04:24;9.20;99.90
61151;DHT22;47029;50.994;2.876;2022-12-19T21:06:51;9.30;99.90
61151;DHT22;47029;50.994;2.876;2022-12-19T21:09:16;9.10;99.90
61151;DHT22;47029;50.994;2.876;2022-12-19T21:11:42;9.30;99.90
61151;DHT22;47029;50.994;2.876;2022-12-19T21:14:08;9.30;99.90
61151;DHT22;47029;50.994;2.876;2022-12-19T21:16:35;9.40;99.90
61151;DHT22;47029;50.994;2.876;2022-12-19T21:19:02;9.40;99.90
61151;DHT22;47029;50.994;2.876;2022-12-19T21:21:28;9.40;99.90
61151;DHT22;47029;50.994;2.876;2022-12-19T21:23:54;9.30;99.90
61151;DHT22;47029;50.994;2.876;2022-12-19T21:26:22;9.40;99.90
61151;DHT22;47029;50.994;2.876;2022-12-19T21:28:48;9.40;99.90
61151;DHT22;47029;50.994;2.876;2022-12-19T21:31:25;9.30;99.90
61151;DHT22;47029;50.994;2.876;2022-12-19T21:33:59;9.30;99.90
61151;DHT22;47029;50.994;2.876;2022-12-19T21:36:26;9.40;99.90
61151;DHT22;47029;50.994;2.876;2022-12-19T21:38:55;9.30;99.90
61151;DHT22;47029;50.994;2.876;2022-12-19T21:41:22;9.30;99.90
61151;DHT22;47029;50.994;2.876;2022-12-19T21:43:50;9.30;99.90
61151;DHT22;47029;50.994;2.876;2022-12-19T21:46:19;9.20;99.90
61151;DHT22;47029;50.994;2.876;2022-12-19T21:48:50;9.30;99.90
61151;DHT22;47029;50.994;2.876;2022-12-19T21:53:45;9.30;99.90
61151;DHT22;47029;50.994;2.876;2022-12-19T21:58:58;9.40;99.90
61151;DHT22;47029;50.994;2.876;2022-12-19T22:01:26;9.40;99.90
61151;DHT22;47029;50.994;2.876;2022-12-19T22:03:57;9.40;99.90
61151;DHT22;47029;50.994;2.876;2022-12-19T22:06:23;9.40;99.90
61151;DHT22;47029;50.994;2.876;2022-12-19T22:08:49;9.40;99.90
61151;DHT22;47029;50.994;2.876;2022-12-19T22:11:18;9.50;99.90
61151;DHT22;47029;50.994;2.876;2022-12-19T22:13:46;9.50;99.90
61151;DHT22;47029;50.994;2.876;2022-12-19T22:16:13;9.70;99.90
61151;DHT22;47029;50.994;2.876;2022-12-19T22:18:39;9.60;99.90
61151;DHT22;47029;50.994;2.876;2022-12-19T22:21:07;9.60;99.90
61151;DHT22;47029;50.994;2.876;2022-12-19T22:23:34;9.60;99.90
61151;DHT22;47029;50.994;2.876;2022-12-19T22:26:06;9.50;99.90
61151;DHT22;47029;50.994;2.876;2022-12-19T22:28:37;9.50;99.90
61151;DHT22;47029;50.994;2.876;2022-12-19T22:33:39;9.50;99.90
61151;DHT22;47029;50.994;2.876;2022-12-19T22:36:05;9.60;99.90